Time;durP1;ratioP1;P1;durP2;ratioP2;P2;SDS_P1;SDS_P2;PMS_P1;PMS_P2;Temp;Humidity;BMP_temperature;BMP_pressure;BME280_temperature;BME280_humidity;BME280_pressure;Samples;Min_cycle;Max_cycle;Signal;HPM_P1;HPM_P2
2023/05/27 00:02:05;;;;;;;2.67;2.47;;;;;;;20.68;58.75;98185.72;5077462;28;20258;-27
2023/05/27 00:04:32;;;;;;;2.87;2.67;;;;;;;20.68;58.79;98180.63;5075215;28;20665;-24
2023/05/27 00:06:59;;;;;;;2.83;2.63;;;;;;;20.68;59.04;98177.19;5071432;28;20216;-24
2023/05/27 00:09:26;;;;;;;2.90;2.70;;;;;;;20.68;59.21;98182.28;5087318;28;20281;-24
2023/05/27 00:11:52;;;;;;;3.10;2.57;;;;;;;20.68;59.30;98188.28;5076742;28;20249;-25
2023/05/27 00:14:20;;;;;;;3.17;2.87;;;;;;;20.67;58.90;98183.09;5075059;28;20666;-23
2023/05/27 00:16:47;;;;;;;2.70;2.50;;;;;;;20.66;58.83;98184.78;5074627;28;20227;-24
2023/05/27 00:19:14;;;;;;;2.80;2.60;;;;;;;20.66;59.16;98174.56;5080934;28;20650;-24
2023/05/27 00:21:40;;;;;;;3.10;2.80;;;;;;;20.66;58.62;98176.25;5073363;28;20212;-24
2023/05/27 00:24:08;;;;;;;3.23;2.97;;;;;;;20.65;58.79;98174.50;5075128;28;20200;-23
2023/05/27 00:26:34;;;;;;;2.90;2.67;;;;;;;20.65;59.09;98177.94;5087273;28;20234;-28
2023/05/27 00:29:01;;;;;;;3.10;2.80;;;;;;;20.65;58.42;98180.50;5078450;28;20237;-26
2023/05/27 00:31:28;;;;;;;2.60;2.40;;;;;;;20.65;58.72;98177.94;5078002;28;20200;-34
2023/05/27 00:33:54;;;;;;;2.80;2.60;;;;;;;20.66;58.89;98177.13;5074715;28;20196;-23
2023/05/27 00:36:21;;;;;;;2.47;2.27;;;;;;;20.66;58.95;98172.00;5082129;28;20598;-24
2023/05/27 00:38:48;;;;;;;2.83;2.53;;;;;;;20.67;58.53;98170.34;5081814;28;20212;-25
2023/05/27 00:41:14;;;;;;;3.00;2.70;;;;;;;20.66;58.82;98172.00;5076070;28;20204;-23
2023/05/27 00:43:41;;;;;;;2.87;2.50;;;;;;;20.66;58.82;98172.00;5080290;28;20204;-24
2023/05/27 00:46:08;;;;;;;2.93;2.70;;;;;;;20.62;58.63;98165.03;5072515;28;20261;-23
2023/05/27 00:48:34;;;;;;;2.90;2.70;;;;;;;20.66;58.90;98172.00;5062261;28;20200;-24
2023/05/27 00:51:01;;;;;;;3.13;2.83;;;;;;;20.67;58.68;98175.44;5075669;28;20209;-24
2023/05/27 00:53:28;;;;;;;2.90;2.70;;;;;;;20.66;59.35;98172.00;5074731;28;20463;-24
2023/05/27 00:55:54;;;;;;;2.83;2.60;;;;;;;20.66;58.77;98166.91;5053335;28;20204;-23
2023/05/27 00:58:23;;;;;;;3.03;2.83;;;;;;;20.67;58.74;98165.22;5049447;28;20215;-23
2023/05/27 01:00:50;;;;;;;2.60;2.40;;;;;;;20.66;58.37;98163.50;5071934;28;20674;-23
2023/05/27 01:03:16;;;;;;;2.87;2.60;;;;;;;20.67;58.58;98171.22;5069027;28;20200;-24
2023/05/27 01:05:43;;;;;;;2.90;2.60;;;;;;;20.67;58.72;98165.22;5081950;28;20227;-24
2023/05/27 01:08:27;;;;;;;3.03;2.80;;;;;;;20.67;58.81;98165.22;5056476;28;20322;-23
2023/05/27 01:10:54;;;;;;;2.90;2.60;;;;;;;20.63;58.83;98158.25;5055836;28;20197;-24
2023/05/27 01:13:35;;;;;;;2.93;2.73;;;;;;;20.68;58.85;98174.63;5055833;28;20196;-24
2023/05/27 01:16:04;;;;;;;2.70;2.50;;;;;;;20.67;58.73;98170.34;5060949;28;20704;-23
2023/05/27 01:18:31;;;;;;;2.70;2.50;;;;;;;20.66;58.61;98161.78;5088342;28;20197;-24
2023/05/27 01:21:02;;;;;;;2.93;2.73;;;;;;;20.67;58.51;98163.56;5039863;28;20196;-23
2023/05/27 01:23:28;;;;;;;3.10;2.80;;;;;;;20.64;58.66;98150.66;5073772;28;20196;-25
2023/05/27 01:25:55;;;;;;;2.80;2.60;;;;;;;20.67;58.63;98158.44;5059502;28;20223;-24
2023/05/27 01:28:22;;;;;;;2.70;2.50;;;;;;;20.67;58.89;98163.56;5087454;28;20192;-27
2023/05/27 01:30:50;;;;;;;3.10;2.87;;;;;;;20.66;58.69;98159.22;5070300;28;20228;-24
2023/05/27 01:33:20;;;;;;;3.10;2.80;;;;;;;20.67;58.85;98149.91;5039760;28;20204;-24
2023/05/27 01:35:55;;;;;;;3.30;3.00;;;;;;;20.67;58.82;98158.44;5053454;28;20200;-24
2023/05/27 01:38:23;;;;;;;3.07;2.80;;;;;;;20.68;58.73;98156.75;5063916;28;20202;-26
2023/05/27 01:40:49;;;;;;;3.77;2.70;;;;;;;20.67;58.48;98158.44;5062867;28;20204;-24
2023/05/27 01:43:16;;;;;;;2.53;2.33;;;;;;;20.68;58.68;98156.75;5043798;28;20226;-24
2023/05/27 01:45:43;;;;;;;3.33;3.03;;;;;;;20.55;58.82;98128.94;5065225;28;20601;-27
2023/05/27 01:48:09;;;;;;;2.80;2.60;;;;;;;20.67;58.55;98149.91;5066843;28;20220;-23
2023/05/27 01:50:36;;;;;;;3.10;2.80;;;;;;;20.67;58.72;98155.91;5074290;28;20584;-24
2023/05/27 01:53:04;;;;;;;3.57;2.70;;;;;;;20.68;58.62;98155.06;5084999;28;20241;-24
2023/05/27 01:55:31;;;;;;;3.07;2.77;;;;;;;20.66;58.71;98154.13;5080339;28;20631;-30
2023/05/27 01:57:57;;;;;;;3.07;2.80;;;;;;;20.68;58.75;98157.63;5077313;28;20277;-25
2023/05/27 02:00:24;;;;;;;2.90;2.60;;;;;;;20.68;58.84;98152.53;5077261;28;20200;-24
2023/05/27 02:02:51;;;;;;;3.10;2.80;;;;;;;20.68;58.60;98159.28;5069091;28;20203;-24
2023/05/27 02:05:17;;;;;;;2.87;2.63;;;;;;;20.67;59.03;98149.91;5083093;28;20235;-24
2023/05/27 02:07:44;;;;;;;3.10;2.67;;;;;;;20.66;58.70;98151.56;5083835;28;20224;-24
2023/05/27 02:10:11;;;;;;;3.10;2.80;;;;;;;20.66;58.73;98149.00;5078765;28;20279;-24
2023/05/27 02:12:37;;;;;;;2.37;2.17;;;;;;;20.65;58.92;98144.72;5077086;28;20203;-24
2023/05/27 02:15:04;;;;;;;3.10;2.77;;;;;;;20.65;58.81;98148.94;5073161;28;20235;-28
2023/05/27 02:17:31;;;;;;;2.87;2.67;;;;;;;20.65;59.31;98143.84;5072712;28;20228;-24
2023/05/27 02:19:58;;;;;;;3.13;2.80;;;;;;;20.65;58.26;98141.28;5070150;28;20212;-23
2023/05/27 02:22:24;;;;;;;3.03;2.70;;;;;;;20.66;58.65;98138.81;5072970;28;20200;-31
2023/05/27 02:24:51;;;;;;;3.67;2.73;;;;;;;20.66;58.71;98140.50;5090486;28;20445;-23
2023/05/27 02:27:18;;;;;;;3.27;2.83;;;;;;;20.67;58.81;98139.69;5083032;28;20274;-24
2023/05/27 02:29:44;;;;;;;2.90;2.70;;;;;;;20.67;58.64;98142.25;5085988;28;20239;-24
2023/05/27 02:32:11;;;;;;;3.00;2.70;;;;;;;20.67;58.79;98138.00;5052329;28;20204;-26
2023/05/27 02:34:37;;;;;;;2.93;2.60;;;;;;;20.63;58.52;98125.06;5072453;28;20627;-23
2023/05/27 02:37:04;;;;;;;3.03;2.67;;;;;;;20.67;58.36;98132.03;5072828;28;20551;-24
2023/05/27 02:39:31;;;;;;;3.07;2.77;;;;;;;20.66;58.60;98136.25;5072163;28;20204;-24
2023/05/27 02:41:57;;;;;;;2.70;2.50;;;;;;;20.67;58.70;98132.03;5072422;28;20200;-27
2023/05/27 02:44:24;;;;;;;2.67;2.47;;;;;;;20.66;58.74;98133.69;5080738;28;20268;-24
2023/05/27 02:46:50;;;;;;;2.80;2.60;;;;;;;20.68;58.64;98138.88;5089363;28;20267;-24
2023/05/27 02:49:18;;;;;;;2.63;2.43;;;;;;;20.67;58.64;98137.13;5067545;28;20239;-24
2023/05/27 02:51:44;;;;;;;3.23;2.93;;;;;;;20.67;58.64;98135.47;5078985;28;20196;-24
2023/05/27 02:54:11;;;;;;;2.90;2.63;;;;;;;20.67;58.56;98137.13;5069944;28;20452;-24
2023/05/27 02:56:38;;;;;;;2.60;2.40;;;;;;;20.67;59.06;98137.13;5072940;28;20308;-24
2023/05/27 02:59:04;;;;;;;3.50;2.73;;;;;;;20.67;58.61;98132.03;5075618;28;20192;-23
2023/05/27 03:01:31;;;;;;;2.97;2.63;;;;;;;20.67;58.61;98132.03;5080729;28;20207;-24
2023/05/27 03:03:58;;;;;;;2.83;2.57;;;;;;;20.67;58.72;98132.03;5089197;28;20191;-26
2023/05/27 03:06:25;;;;;;;3.00;2.70;;;;;;;20.66;58.44;98133.69;5071742;28;20224;-25
2023/05/27 03:08:51;;;;;;;2.83;2.63;;;;;;;20.66;58.57;98130.28;5083424;28;20195;-24
2023/05/27 03:11:18;;;;;;;3.20;2.90;;;;;;;20.67;58.68;98132.03;5073383;28;20693;-24
2023/05/27 03:13:44;;;;;;;2.90;2.70;;;;;;;20.67;58.79;98132.03;5071899;28;20207;-32
2023/05/27 03:16:12;;;;;;;3.40;2.67;;;;;;;20.67;58.40;98132.91;5079894;28;20196;-25
2023/05/27 03:18:39;;;;;;;2.70;2.50;;;;;;;20.69;58.85;98133.81;5080818;28;20567;-24
2023/05/27 03:21:06;;;;;;;3.17;2.87;;;;;;;20.68;58.46;98137.19;5079376;28;20200;-23
2023/05/27 03:23:32;;;;;;;3.03;2.73;;;;;;;20.68;58.62;98132.09;5069244;28;20651;-24
2023/05/27 03:25:59;;;;;;;2.77;2.50;;;;;;;20.68;58.56;98139.75;5078456;28;20214;-23
2023/05/27 03:28:26;;;;;;;2.63;2.33;;;;;;;19.62;58.63;97949.63;5066276;28;20686;-23
2023/05/27 03:30:55;;;;;;;3.23;2.80;;;;;;;20.69;58.69;98132.97;5071194;28;20208;-24
2023/05/27 03:33:23;;;;;;;2.57;2.37;;;;;;;20.68;58.43;98137.19;5069021;28;20196;-24
2023/05/27 03:35:50;;;;;;;3.40;2.80;;;;;;;20.68;58.58;98134.63;5036734;28;20200;-32
2023/05/27 03:38:17;;;;;;;2.73;2.47;;;;;;;20.68;58.45;98136.31;5084148;28;20648;-24
2023/05/27 03:40:43;;;;;;;3.20;2.87;;;;;;;20.68;58.69;98134.63;5069554;28;20200;-23
2023/05/27 03:43:10;;;;;;;2.90;2.60;;;;;;;20.68;58.92;98126.09;5071651;28;20265;-28
2023/05/27 03:45:37;;;;;;;3.23;2.70;;;;;;;20.68;58.63;98131.19;5080403;28;20292;-24
2023/05/27 03:48:03;;;;;;;3.00;2.70;;;;;;;20.68;58.56;98133.75;5084315;28;20269;-24
2023/05/27 03:50:31;;;;;;;3.37;2.97;;;;;;;20.68;58.35;98128.66;5071293;28;20196;-24
2023/05/27 03:52:57;;;;;;;2.57;2.37;;;;;;;20.68;58.45;98136.31;5081237;28;20195;-25
2023/05/27 03:55:24;;;;;;;2.70;2.50;;;;;;;20.66;58.55;98132.84;5081048;28;20193;-24
2023/05/27 03:57:51;;;;;;;2.73;2.53;;;;;;;20.65;58.65;98131.06;5078311;28;20224;-23
2023/05/27 04:00:18;;;;;;;3.10;2.80;;;;;;;20.66;58.65;98135.41;5070994;28;20239;-23
2023/05/27 04:02:44;;;;;;;2.50;2.30;;;;;;;20.65;58.59;98139.63;5089832;28;20200;-24
2023/05/27 04:05:11;;;;;;;2.47;2.27;;;;;;;20.65;58.81;98134.50;5085961;28;20200;-24
2023/05/27 04:07:38;;;;;;;2.90;2.60;;;;;;;20.66;58.71;98133.69;5081281;28;20228;-23
2023/05/27 04:10:05;;;;;;;2.90;2.60;;;;;;;20.66;58.57;98133.69;5076114;28;20200;-24
2023/05/27 04:12:32;;;;;;;2.50;2.30;;;;;;;20.68;58.61;98136.31;5081272;28;20279;-23
2023/05/27 04:14:58;;;;;;;2.93;2.63;;;;;;;20.68;59.04;98134.63;5071078;28;20227;-24
2023/05/27 04:17:25;;;;;;;2.97;2.50;;;;;;;20.68;58.63;98137.19;5073474;28;20282;-24
2023/05/27 04:19:52;;;;;;;4.03;2.40;;;;;;;20.68;58.54;98138.88;5090842;28;20279;-23
2023/05/27 04:22:19;;;;;;;3.10;2.80;;;;;;;20.68;58.19;98138.88;5073303;28;20713;-23
2023/05/27 04:24:46;;;;;;;2.50;2.30;;;;;;;20.68;58.46;98143.97;5079994;28;20261;-23
2023/05/27 04:27:16;;;;;;;3.80;2.77;;;;;;;20.68;58.65;98136.31;5070697;28;20224;-24
2023/05/27 04:29:45;;;;;;;2.67;2.47;;;;;;;20.68;58.71;98146.53;5072809;28;20291;-24
2023/05/27 04:32:12;;;;;;;2.83;2.37;;;;;;;20.67;58.51;98148.22;5084341;28;20200;-23
2023/05/27 04:34:41;;;;;;;2.50;2.27;;;;;;;20.67;58.31;98148.22;5071034;28;20200;-24
2023/05/27 04:37:10;;;;;;;2.83;2.63;;;;;;;20.68;58.39;98152.53;5079113;28;20212;-24
2023/05/27 04:39:40;;;;;;;3.13;2.70;;;;;;;20.67;58.62;98137.13;5073378;28;20204;-24
2023/05/27 04:42:08;;;;;;;3.30;2.77;;;;;;;20.66;58.20;98141.34;5071039;28;20628;-23
2023/05/27 04:44:35;;;;;;;2.40;2.20;;;;;;;20.68;58.65;98141.41;5086180;28;20200;-27
2023/05/27 04:47:02;;;;;;;3.10;2.60;;;;;;;20.68;58.45;98149.09;5071221;28;20231;-23
2023/05/27 04:49:29;;;;;;;2.97;2.67;;;;;;;20.67;58.72;98140.56;5082998;28;20678;-23
2023/05/27 04:51:55;;;;;;;3.10;2.63;;;;;;;20.68;58.67;98146.53;5078644;28;20204;-23
2023/05/27 04:54:22;;;;;;;2.60;2.40;;;;;;;20.67;58.57;98145.69;5074827;28;20200;-25
2023/05/27 04:56:52;;;;;;;2.93;2.47;;;;;;;20.69;58.54;98145.75;5082686;28;21440;-23
2023/05/27 04:59:21;;;;;;;3.43;2.60;;;;;;;20.67;58.70;98135.47;5074573;28;20200;-23
2023/05/27 05:04:46;;;;;;;2.40;2.20;;;;;;;20.68;58.56;98139.75;5061806;28;20204;-25
2023/05/27 05:07:13;;;;;;;2.77;2.50;;;;;;;20.68;58.70;98141.41;5091290;28;20701;-23
2023/05/27 05:09:40;;;;;;;3.00;2.70;;;;;;;20.68;58.39;98142.31;5068018;28;20201;-24
2023/05/27 05:12:07;;;;;;;3.10;2.80;;;;;;;20.68;58.55;98139.75;5074063;28;20204;-23
2023/05/27 05:14:33;;;;;;;2.53;2.20;;;;;;;20.67;58.43;98138.00;5071127;28;20197;-24
2023/05/27 05:17:00;;;;;;;2.70;2.50;;;;;;;20.68;58.02;98147.41;5073750;28;20222;-23
2023/05/27 05:19:27;;;;;;;2.90;2.63;;;;;;;20.68;58.45;98152.53;5056385;28;20197;-23
2023/05/27 05:21:53;;;;;;;2.97;2.57;;;;;;;20.68;58.27;98146.53;5083407;28;20204;-24
2023/05/27 05:24:20;;;;;;;3.53;2.50;;;;;;;20.68;58.27;98141.41;5077300;28;20214;-23
2023/05/27 05:26:46;;;;;;;2.67;2.47;;;;;;;20.68;58.57;98143.97;5075863;28;20251;-23
2023/05/27 05:29:13;;;;;;;2.53;2.33;;;;;;;20.63;58.56;98140.38;5080522;28;20242;-38
2023/05/27 05:31:41;;;;;;;2.50;2.30;;;;;;;20.68;58.27;98151.63;5073210;28;20262;-24
2023/05/27 05:34:07;;;;;;;2.57;2.37;;;;;;;20.67;58.28;98150.78;5074079;28;20261;-24
2023/05/27 05:36:34;;;;;;;3.33;2.70;;;;;;;20.68;58.39;98152.53;5073572;28;20712;-24
2023/05/27 05:39:02;;;;;;;2.73;2.53;;;;;;;20.68;58.39;98149.09;5078963;28;20254;-23
2023/05/27 05:41:29;;;;;;;3.00;2.70;;;;;;;20.67;58.46;98150.78;5068006;28;20196;-23
2023/05/27 05:43:56;;;;;;;2.87;2.53;;;;;;;20.67;58.70;98147.34;5071316;28;20612;-32
2023/05/27 05:46:23;;;;;;;3.50;2.70;;;;;;;20.66;58.93;98151.56;5080788;28;20235;-24
2023/05/27 05:48:53;;;;;;;2.60;2.40;;;;;;;20.65;58.45;98160.06;5075412;28;20205;-24
2023/05/27 05:51:20;;;;;;;2.70;2.50;;;;;;;20.66;58.36;98148.16;5082698;28;20442;-24
2023/05/27 05:53:46;;;;;;;3.37;2.73;;;;;;;20.66;58.18;98160.94;5080688;28;20201;-29
2023/05/27 05:56:13;;;;;;;2.90;2.60;;;;;;;20.65;58.72;98154.94;5079367;28;20245;-23
2023/05/27 05:58:39;;;;;;;2.70;2.30;;;;;;;20.64;58.56;98158.31;5090271;22;20645;-30
2023/05/27 06:01:06;;;;;;;2.40;2.20;;;;;;;20.66;58.20;98158.38;5071120;28;20206;-29
2023/05/27 06:03:33;;;;;;;2.67;2.43;;;;;;;20.65;58.38;98160.06;5070275;28;20200;-30
2023/05/27 06:06:00;;;;;;;2.40;2.20;;;;;;;20.66;58.26;98161.78;5072888;28;20208;-29
2023/05/27 06:08:26;;;;;;;3.17;2.40;;;;;;;20.67;58.54;98163.56;5069260;28;20220;-29
2023/05/27 06:10:53;;;;;;;2.77;2.57;;;;;;;20.68;59.00;98164.41;5065985;28;20236;-30
2023/05/27 06:13:20;;;;;;;2.77;2.40;;;;;;;20.67;58.47;98160.13;5069920;28;20200;-29
2023/05/27 06:15:46;;;;;;;2.77;2.37;;;;;;;20.68;58.36;98161.84;5057215;28;20201;-30
2023/05/27 06:18:13;;;;;;;3.00;2.60;;;;;;;20.67;58.35;98161.00;5058759;28;20225;-30
2023/05/27 06:20:40;;;;;;;3.70;2.40;;;;;;;20.68;58.28;98159.28;5059075;28;20213;-29
2023/05/27 06:23:07;;;;;;;3.57;2.50;;;;;;;20.68;58.44;98164.41;5058168;28;20295;-30
2023/05/27 06:25:34;;;;;;;2.80;2.40;;;;;;;20.66;58.14;98151.56;5068374;28;20208;-30
2023/05/27 06:28:00;;;;;;;3.33;2.50;;;;;;;20.64;58.22;98145.56;5064387;28;20220;-31
2023/05/27 06:30:27;;;;;;;2.83;2.53;;;;;;;20.62;58.25;98143.72;5056569;28;20299;-30
2023/05/27 06:32:54;;;;;;;2.73;2.30;;;;;;;20.67;58.39;98153.34;5063813;28;20645;-30
2023/05/27 06:35:20;;;;;;;2.50;2.30;;;;;;;20.65;58.43;98148.94;5065430;28;20200;-30
2023/05/27 06:37:47;;;;;;;2.43;2.23;;;;;;;20.68;58.27;98157.63;5057949;28;20297;-29
2023/05/27 06:40:14;;;;;;;3.07;2.77;;;;;;;20.67;58.38;98153.34;5052483;28;20197;-30
2023/05/27 06:42:42;;;;;;;2.60;2.37;;;;;;;20.68;58.42;98162.75;5062089;28;20215;-30
2023/05/27 06:45:10;;;;;;;2.83;2.50;;;;;;;20.68;58.42;98154.19;5068194;28;20215;-30
2023/05/27 06:47:36;;;;;;;2.90;2.60;;;;;;;20.68;58.19;98156.75;5046258;28;20283;-30
2023/05/27 06:50:03;;;;;;;3.60;2.80;;;;;;;20.67;58.46;98155.91;5050687;28;20278;-30
2023/05/27 06:52:30;;;;;;;3.20;2.80;;;;;;;20.68;58.47;98165.28;5060674;28;20201;-30
2023/05/27 06:54:56;;;;;;;2.70;2.50;;;;;;;20.67;58.61;98158.44;5048325;28;20204;-30
2023/05/27 06:57:23;;;;;;;3.17;2.53;;;;;;;20.68;57.99;98154.19;5046054;28;20643;-31
2023/05/27 06:59:49;;;;;;;3.67;2.77;;;;;;;20.68;58.44;98156.75;5068479;28;20208;-30
2023/05/27 07:02:16;;;;;;;2.37;2.17;;;;;;;20.62;58.41;98146.28;5057446;28;20205;-30
2023/05/27 07:04:43;;;;;;;2.60;2.10;;;;;;;20.67;58.30;98153.34;5061009;28;20683;-30
2023/05/27 07:07:09;;;;;;;3.20;2.33;;;;;;;20.68;58.37;98157.63;5055916;28;20659;-29
2023/05/27 07:09:36;;;;;;;3.77;2.77;;;;;;;20.68;58.48;98155.06;5052567;28;20735;-32
2023/05/27 07:12:03;;;;;;;3.17;2.30;;;;;;;20.69;58.51;98161.06;5060286;28;20205;-29
2023/05/27 07:14:29;;;;;;;3.00;2.70;;;;;;;20.68;58.67;98152.53;5060650;28;20205;-30
2023/05/27 07:16:56;;;;;;;3.13;2.57;;;;;;;20.68;58.33;98155.06;5071340;28;20274;-30
2023/05/27 07:19:22;;;;;;;2.50;2.30;;;;;;;20.68;58.59;98160.19;5062171;28;20258;-29
2023/05/27 07:21:49;;;;;;;4.30;2.67;;;;;;;20.62;58.25;98147.16;5054520;28;20209;-30
2023/05/27 07:24:16;;;;;;;2.93;2.60;;;;;;;20.68;58.53;98156.75;5066341;28;20204;-30
2023/05/27 07:26:43;;;;;;;2.50;2.30;;;;;;;20.67;58.35;98155.00;5052846;28;20220;-29
2023/05/27 07:29:10;;;;;;;2.63;2.43;;;;;;;20.67;58.37;98153.34;5049009;28;20219;-30
2023/05/27 07:31:37;;;;;;;3.10;2.30;;;;;;;20.69;58.33;98153.41;5062870;28;20208;-33
2023/05/27 07:34:03;;;;;;;3.67;2.40;;;;;;;20.69;58.47;98155.97;5059144;28;20288;-30
2023/05/27 07:36:31;;;;;;;3.30;2.70;;;;;;;20.67;58.58;98161.00;5054637;28;20247;-29
2023/05/27 07:38:57;;;;;;;2.50;2.30;;;;;;;20.67;58.48;98152.47;5051093;28;20748;-30
2023/05/27 07:41:24;;;;;;;3.10;2.50;;;;;;;20.69;58.69;98155.97;5053703;28;20205;-29
2023/05/27 07:43:51;;;;;;;2.80;2.30;;;;;;;20.67;58.02;98155.91;5059159;28;20287;-30
2023/05/27 07:46:17;;;;;;;2.40;2.20;;;;;;;20.64;58.47;98150.66;5060243;28;20201;-30
2023/05/27 07:48:44;;;;;;;3.13;2.77;;;;;;;20.67;57.78;98148.22;5057811;28;20247;-30
2023/05/27 07:51:11;;;;;;;2.70;2.50;;;;;;;20.66;58.17;98151.56;5051488;28;20201;-30
2023/05/27 07:53:37;;;;;;;2.83;2.50;;;;;;;20.64;58.39;98147.22;5058575;28;20265;-30
2023/05/27 07:56:04;;;;;;;2.40;2.20;;;;;;;20.66;58.30;98149.00;5063648;28;20205;-30
2023/05/27 07:58:31;;;;;;;2.73;2.53;;;;;;;20.68;58.37;98149.09;5042920;28;20271;-30
2023/05/27 08:00:57;;;;;;;3.47;2.67;;;;;;;20.67;58.48;98142.25;5061334;28;20211;-30
2023/05/27 08:03:24;;;;;;;2.83;2.57;;;;;;;20.69;58.42;98148.28;5054251;28;20201;-29
2023/05/27 08:05:51;;;;;;;2.50;2.30;;;;;;;20.68;58.27;98146.53;5023649;28;20575;-30
2023/05/27 08:08:17;;;;;;;2.60;2.33;;;;;;;20.69;58.53;98140.63;5054858;28;20224;-30
2023/05/27 08:10:45;;;;;;;5.93;2.37;;;;;;;20.69;57.99;98149.16;5051950;28;20204;-30
2023/05/27 08:13:12;;;;;;;2.37;2.17;;;;;;;20.69;58.28;98138.06;5062282;28;20236;-30
2023/05/27 08:15:39;;;;;;;2.73;2.30;;;;;;;20.67;58.40;98137.13;5059225;28;20205;-30
2023/05/27 08:18:05;;;;;;;3.17;2.70;;;;;;;20.69;58.29;98141.47;5059357;28;20216;-30
2023/05/27 08:20:32;;;;;;;2.60;2.40;;;;;;;20.69;58.29;98136.38;5064981;28;20196;-30
2023/05/27 08:22:59;;;;;;;2.70;2.50;;;;;;;20.69;58.50;98138.94;5060057;28;20219;-30
2023/05/27 08:25:26;;;;;;;4.13;2.70;;;;;;;20.69;58.24;98146.59;5051695;28;20226;-30
2023/05/27 08:27:53;;;;;;;2.90;2.40;;;;;;;20.70;58.27;98135.59;5064329;28;20570;-30
2023/05/27 08:30:19;;;;;;;2.67;2.37;;;;;;;20.69;58.30;98135.53;5064151;28;20236;-30
2023/05/27 08:32:46;;;;;;;2.40;2.20;;;;;;;20.71;58.23;98139.88;5056885;28;20297;-30
2023/05/27 08:35:16;;;;;;;3.30;2.37;;;;;;;20.71;57.67;98139.88;5061188;28;20204;-30
2023/05/27 08:37:43;;;;;;;3.00;2.70;;;;;;;20.71;57.84;98137.31;5050358;28;20737;-30
2023/05/27 08:40:14;;;;;;;4.87;2.53;;;;;;;20.71;58.25;98133.88;5054850;28;20209;-30
2023/05/27 08:42:41;;;;;;;2.57;2.20;;;;;;;20.68;58.42;98131.19;5067054;28;20226;-30
2023/05/27 08:45:09;;;;;;;3.30;2.70;;;;;;;20.71;58.18;98126.22;5062132;28;20655;-30
2023/05/27 08:47:35;;;;;;;2.63;2.43;;;;;;;20.71;58.38;98129.66;5065465;28;20230;-30
2023/05/27 08:50:03;;;;;;;2.27;2.07;;;;;;;20.70;57.92;98117.72;5043093;28;20207;-29
2023/05/27 08:52:30;;;;;;;3.57;2.47;;;;;;;20.70;58.04;98125.38;5044347;28;20254;-29
2023/05/27 08:54:57;;;;;;;3.53;2.60;;;;;;;20.71;58.43;98113.44;5068935;28;20274;-29
2023/05/27 08:57:31;;;;;;;2.60;2.40;;;;;;;20.69;58.26;98104.88;5067030;28;20255;-30
2023/05/27 08:59:58;;;;;;;2.87;2.53;;;;;;;20.68;58.33;98109.09;5047661;28;20295;-29
2023/05/27 09:02:25;;;;;;;2.53;2.17;;;;;;;20.71;58.33;98106.69;5059423;28;20205;-30
2023/05/27 09:04:51;;;;;;;3.53;2.50;;;;;;;20.70;58.58;98115.16;5067167;28;20210;-30
2023/05/27 09:07:21;;;;;;;2.50;2.30;;;;;;;20.70;58.13;98110.03;5063546;28;20743;-30
2023/05/27 09:09:55;;;;;;;2.97;2.43;;;;;;;20.68;58.22;98109.09;5029951;28;20201;-29
2023/05/27 09:12:27;;;;;;;2.30;2.10;;;;;;;20.70;58.10;98107.50;5066241;28;20200;-30
2023/05/27 09:14:54;;;;;;;3.30;2.53;;;;;;;20.70;58.37;98107.50;5064011;28;20208;-30
2023/05/27 09:17:22;;;;;;;2.53;2.33;;;;;;;20.71;58.40;98101.56;5049328;28;20246;-30
2023/05/27 09:19:52;;;;;;;3.53;2.70;;;;;;;20.71;58.41;98099.00;5056817;28;20686;-30
2023/05/27 09:22:31;;;;;;;3.20;2.50;;;;;;;20.69;58.07;98100.63;5045360;28;20254;-30
2023/05/27 09:24:58;;;;;;;3.00;2.40;;;;;;;20.66;58.14;98094.53;5058235;28;20686;-30
2023/05/27 09:27:28;;;;;;;2.83;2.40;;;;;;;20.69;58.17;98104.88;5059881;28;20697;-30
2023/05/27 09:29:55;;;;;;;2.90;2.40;;;;;;;20.69;58.21;98092.94;5045375;28;20242;-30
2023/05/27 09:32:30;;;;;;;2.97;2.30;;;;;;;20.65;58.46;98080.88;5059757;28;20204;-30
2023/05/27 09:34:58;;;;;;;2.10;1.90;;;;;;;20.66;58.22;98085.16;5062644;28;20212;-33
2023/05/27 09:37:25;;;;;;;2.50;2.10;;;;;;;20.69;58.21;98087.00;5053496;28;20221;-30
2023/05/27 09:39:52;;;;;;;3.57;2.37;;;;;;;20.69;58.32;98087.84;5058735;28;20205;-29
2023/05/27 09:42:20;;;;;;;3.87;2.80;;;;;;;20.70;58.03;98088.72;5055552;28;20271;-29
2023/05/27 09:44:48;;;;;;;2.17;2.07;;;;;;;20.70;58.42;98079.41;5049242;28;20277;-30
2023/05/27 09:47:16;;;;;;;2.20;1.90;;;;;;;20.70;58.37;98076.84;5041995;28;20313;-29
2023/05/27 09:49:43;;;;;;;2.57;2.37;;;;;;;20.71;58.24;98072.59;5065829;28;20211;-29
2023/05/27 09:52:10;;;;;;;2.37;2.10;;;;;;;20.68;58.20;98078.44;5062930;28;20209;-30
2023/05/27 09:54:37;;;;;;;3.00;2.27;;;;;;;20.68;58.26;98075.91;5045175;28;20209;-29
2023/05/27 09:57:05;;;;;;;2.37;2.17;;;;;;;20.68;58.22;98067.34;5049863;28;20730;-30
2023/05/27 09:59:32;;;;;;;2.50;2.30;;;;;;;20.71;58.10;98064.91;5026434;28;20236;-29
2023/05/27 10:02:00;;;;;;;2.47;2.13;;;;;;;20.69;58.07;98064.00;5062705;28;20251;-29
2023/05/27 10:04:28;;;;;;;2.40;2.20;;;;;;;20.70;58.38;98060.63;5042756;28;20256;-30
2023/05/27 10:06:54;;;;;;;3.63;2.27;;;;;;;20.70;58.00;98065.75;5055936;28;20228;-30
2023/05/27 10:09:21;;;;;;;2.83;2.40;;;;;;;20.69;58.37;98062.31;5028382;28;20201;-29
2023/05/27 10:11:47;;;;;;;2.10;2.00;;;;;;;20.71;58.05;98054.72;5041335;28;20251;-30
2023/05/27 10:14:15;;;;;;;2.77;2.20;;;;;;;20.72;58.25;98059.03;5026384;28;20201;-30
2023/05/27 10:16:51;;;;;;;3.83;2.00;;;;;;;20.72;58.27;98054.78;5024194;28;20204;-29
2023/05/27 10:19:18;;;;;;;2.30;2.10;;;;;;;20.70;58.11;98046.19;5054648;28;20250;-30
2023/05/27 10:21:45;;;;;;;2.53;2.10;;;;;;;20.70;58.13;98035.97;5047321;28;20489;-30
2023/05/27 10:24:12;;;;;;;2.93;2.30;;;;;;;20.67;58.17;98045.19;5064035;28;20205;-29
2023/05/27 10:26:42;;;;;;;2.30;2.10;;;;;;;20.71;58.21;98050.47;5067370;28;20208;-30
2023/05/27 10:29:13;;;;;;;2.70;2.00;;;;;;;20.72;58.15;98048.81;5042804;28;20300;-30
2023/05/27 10:31:46;;;;;;;2.30;2.10;;;;;;;20.70;58.16;98038.53;5056505;28;20209;-30
2023/05/27 10:34:18;;;;;;;2.27;2.00;;;;;;;20.72;58.21;98043.69;5062520;28;20200;-29
2023/05/27 10:36:45;;;;;;;2.37;2.17;;;;;;;20.71;58.07;98039.38;5052320;28;20205;-30
2023/05/27 10:39:14;;;;;;;2.17;1.97;;;;;;;20.71;58.21;98037.72;5044231;28;20224;-30
2023/05/27 10:41:49;;;;;;;2.20;2.00;;;;;;;20.72;58.04;98041.16;5060586;28;20211;-29
2023/05/27 10:44:29;;;;;;;2.10;1.90;;;;;;;20.71;58.18;98029.16;5057861;28;20303;-30
2023/05/27 10:47:13;;;;;;;2.43;2.20;;;;;;;20.72;58.04;98036.03;5062566;28;20224;-30
2023/05/27 10:49:41;;;;;;;2.03;1.90;;;;;;;20.71;58.15;98037.72;5069510;28;20216;-30
2023/05/27 10:52:12;;;;;;;2.63;2.03;;;;;;;20.72;58.20;98041.16;5045040;28;20209;-30
2023/05/27 10:54:40;;;;;;;1.93;1.83;;;;;;;20.72;58.04;98030.94;5043853;28;20251;-30
2023/05/27 10:57:07;;;;;;;2.77;1.90;;;;;;;20.71;58.16;98027.50;5055482;28;20309;-29
2023/05/27 10:59:52;;;;;;;2.03;1.90;;;;;;;20.70;58.24;98017.22;5053819;28;20200;-29
2023/05/27 11:02:22;;;;;;;2.23;2.03;;;;;;;20.72;58.12;98024.13;5063703;28;20206;-30
2023/05/27 11:04:48;;;;;;;2.27;2.03;;;;;;;20.72;58.33;98023.28;5063643;28;20819;-30
2023/05/27 11:07:19;;;;;;;1.90;1.80;;;;;;;20.72;58.09;98026.66;5066843;28;20220;-30
2023/05/27 11:09:47;;;;;;;2.10;1.90;;;;;;;20.71;58.09;98019.84;5062866;28;20215;-30
2023/05/27 11:12:17;;;;;;;2.97;2.00;;;;;;;20.71;58.12;98016.41;5049753;28;20216;-31
2023/05/27 11:14:46;;;;;;;2.20;2.00;;;;;;;20.70;58.11;98015.53;5068001;28;20270;-29
2023/05/27 11:17:12;;;;;;;2.13;1.93;;;;;;;20.70;58.23;98013.00;5055204;28;20258;-29
2023/05/27 11:19:42;;;;;;;2.20;2.00;;;;;;;20.66;58.20;98006.00;5053883;28;20275;-30
2023/05/27 11:22:09;;;;;;;2.17;1.97;;;;;;;20.65;58.37;98006.81;5051837;28;20239;-30
2023/05/27 11:24:36;;;;;;;2.63;2.10;;;;;;;20.65;58.22;97996.59;5045691;28;20204;-30
2023/05/27 11:27:13;;;;;;;2.30;2.10;;;;;;;20.67;58.08;97999.22;5056961;28;20225;-30
2023/05/27 11:29:49;;;;;;;2.70;2.20;;;;;;;20.65;58.23;97991.50;5049819;28;20224;-30
2023/05/27 11:32:16;;;;;;;2.37;2.17;;;;;;;20.66;58.49;97987.28;5033353;28;20258;-30
2023/05/27 11:34:43;;;;;;;2.97;2.20;;;;;;;20.68;58.43;97995.84;5054833;28;20201;-30
2023/05/27 11:37:10;;;;;;;2.20;2.00;;;;;;;20.68;58.19;97990.72;5065189;28;20248;-30
2023/05/27 11:39:37;;;;;;;2.07;1.97;;;;;;;20.69;58.33;97987.38;5060213;28;20201;-30